Hurstpierpoint, United Kingdom
Current Conditions -  °F | °C
As of 10:20 AM on Sunday 21 Dec 2014 (Local Time) from EGKA Reporting Station
Drizzle Drizzle  
Wind Chill:   Ceiling: 2000
Heat Index:   Visibility: 4mi
Dew Point:   Wind: 15mph
Humidity: 93%   Direction: 250°WSW
Pressure: 30.42"   Gusts: NA
Location:  50.93°N, 0.18°W
Report Text: EGKA 211020Z 25013KT 6000 -DZ FEW012 BKN020 09/08 Q1030
Loading
Personal Weather Stations






























Interactive Weather Map New forecast layout! Learn more

10-Day Weather Forecast

Advertisements
Track Severe Weather on mobile